Time;durP1;ratioP1;P1;durP2;ratioP2;P2;SDS_P1;SDS_P2;PMS_P1;PMS_P2;Temp;Humidity;BMP_temperature;BMP_pressure;BME280_temperature;BME280_humidity;BME280_pressure;Samples;Min_cycle;Max_cycle;Signal;HPM_P1;HPM_P2
2022/09/17 00:02:24;;;;;;;0.30;0.30;;;15.70;86.00;;;;;;5114921;28;20028;-15
2022/09/17 00:04:50;;;;;;;0.75;0.40;;;15.80;85.70;;;;;;5114477;28;20023;-15
2022/09/17 00:07:17;;;;;;;0.40;0.40;;;15.80;85.80;;;;;;5114317;28;20055;-15
2022/09/17 00:09:43;;;;;;;0.70;0.47;;;15.80;86.20;;;;;;5114541;28;20023;-15
2022/09/17 00:12:10;;;;;;;1.63;0.38;;;15.80;86.30;;;;;;5114489;28;20023;-15
2022/09/17 00:14:36;;;;;;;0.30;0.30;;;15.90;86.30;;;;;;5114686;28;20027;-15
2022/09/17 00:17:01;;;;;;;0.40;0.40;;;15.90;86.10;;;;;;5114521;28;20378;-15
2022/09/17 00:19:27;;;;;;;1.30;0.82;;;15.90;86.00;;;;;;5114876;28;20112;-15
2022/09/17 00:21:53;;;;;;;2.05;0.52;;;15.90;85.70;;;;;;5113510;28;20023;-16
2022/09/17 00:24:20;;;;;;;2.58;0.70;;;15.90;85.50;;;;;;5095934;28;20068;-15
2022/09/17 00:26:48;;;;;;;0.65;0.40;;;15.90;85.60;;;;;;5114247;28;20494;-15
2022/09/17 00:29:15;;;;;;;1.05;0.30;;;15.90;85.70;;;;;;5114204;28;20356;-15
2022/09/17 00:31:41;;;;;;;8.35;0.60;;;15.90;85.60;;;;;;5114439;28;20024;-15
2022/09/17 00:34:06;;;;;;;0.30;0.30;;;15.90;86.00;;;;;;5114060;28;20127;-15
2022/09/17 00:36:37;;;;;;;1.33;0.68;;;15.90;86.10;;;;;;5114364;28;20029;-15
2022/09/17 00:39:05;;;;;;;2.53;0.70;;;15.80;86.50;;;;;;5113843;28;20051;-15
2022/09/17 00:41:33;;;;;;;0.85;0.68;;;15.80;86.80;;;;;;5114343;28;20032;-13
2022/09/17 00:44:20;;;;;;;3.85;0.60;;;15.80;86.80;;;;;;5113945;28;20085;-15
2022/09/17 00:46:48;;;;;;;0.45;0.45;;;15.80;87.00;;;;;;5113866;28;20055;-15
2022/09/17 00:49:27;;;;;;;0.70;0.68;;;15.80;87.50;;;;;;5114172;28;20037;-15
2022/09/17 00:52:14;;;;;;;0.43;0.43;;;15.70;87.50;;;;;;5114096;28;20032;-15
2022/09/17 00:54:44;;;;;;;1.25;0.55;;;15.70;87.10;;;;;;5113702;28;20024;-15
2022/09/17 00:57:11;;;;;;;1.50;0.45;;;15.70;87.60;;;;;;5113463;28;20023;-15
2022/09/17 00:59:37;;;;;;;1.58;0.60;;;15.60;87.90;;;;;;5114391;28;20036;-15
2022/09/17 01:02:04;;;;;;;2.72;0.60;;;15.60;88.10;;;;;;5113917;28;20027;-15
2022/09/17 01:04:29;;;;;;;0.63;0.60;;;15.60;88.20;;;;;;5114000;28;20031;-15
2022/09/17 01:07:01;;;;;;;2.15;0.60;;;15.60;88.30;;;;;;5113452;28;20059;-15
2022/09/17 01:09:57;;;;;;;2.20;0.75;;;15.60;87.70;;;;;;5095628;28;20031;-15
2022/09/17 01:12:44;;;;;;;0.93;0.73;;;15.60;87.90;;;;;;5113640;28;20034;-15
2022/09/17 01:15:13;;;;;;;1.65;0.50;;;15.60;88.20;;;;;;5113490;28;20471;-14
2022/09/17 01:17:47;;;;;;;0.52;0.52;;;15.50;88.60;;;;;;5113459;28;20031;-15
2022/09/17 01:20:41;;;;;;;1.13;0.52;;;15.50;88.70;;;;;;5113438;28;20026;-15
2022/09/17 01:23:16;;;;;;;0.60;0.60;;;15.50;88.60;;;;;;5113513;28;20038;-15
2022/09/17 01:26:06;;;;;;;2.55;0.77;;;15.50;88.60;;;;;;5113709;28;20039;-15
2022/09/17 01:28:54;;;;;;;1.77;0.77;;;15.50;88.50;;;;;;5113792;28;20028;-15
2022/09/17 01:31:34;;;;;;;2.22;0.90;;;15.50;88.40;;;;;;5113374;28;20028;-14
2022/09/17 01:34:15;;;;;;;1.40;0.60;;;15.50;88.00;;;;;;5116448;28;20016;-15
2022/09/17 01:37:06;;;;;;;2.25;0.70;;;15.50;87.70;;;;;;5117473;28;20080;-15
2022/09/17 01:39:39;;;;;;;0.75;0.63;;;15.50;87.40;;;;;;5117672;28;20044;-15
2022/09/17 01:42:30;;;;;;;1.83;0.50;;;15.60;87.20;;;;;;5117438;28;20084;-14
2022/09/17 01:45:09;;;;;;;0.63;0.57;;;15.60;87.30;;;;;;5117214;28;20071;-15
2022/09/17 01:47:37;;;;;;;0.40;0.40;;;15.60;87.30;;;;;;5117391;28;20024;-14
2022/09/17 01:50:16;;;;;;;0.50;0.50;;;15.60;87.30;;;;;;5117258;28;20041;-14
2022/09/17 01:52:45;;;;;;;0.70;0.60;;;15.60;87.50;;;;;;5117706;28;20039;-15
2022/09/17 01:55:15;;;;;;;0.90;0.50;;;15.60;87.90;;;;;;5117318;28;20027;-15
2022/09/17 01:57:50;;;;;;;0.40;0.40;;;15.60;87.80;;;;;;5117624;28;20106;-15
2022/09/17 02:00:16;;;;;;;0.82;0.50;;;15.60;87.30;;;;;;5117380;28;20035;-15
2022/09/17 02:02:54;;;;;;;1.92;0.50;;;15.60;87.20;;;;;;5117356;28;20035;-15
2022/09/17 02:05:44;;;;;;;2.05;0.82;;;15.60;87.20;;;;;;5118042;28;20031;-15
2022/09/17 02:08:15;;;;;;;0.60;0.60;;;15.60;87.90;;;;;;5116666;28;20521;-15
2022/09/17 02:10:46;;;;;;;0.75;0.60;;;15.60;88.00;;;;;;5117298;28;20102;-15
2022/09/17 02:13:23;;;;;;;2.05;0.80;;;15.60;88.00;;;;;;5116743;28;20024;-14
2022/09/17 02:16:00;;;;;;;1.60;0.70;;;15.60;88.10;;;;;;5117086;28;20425;-16
2022/09/17 02:19:00;;;;;;;1.05;0.60;;;15.50;88.20;;;;;;5117053;28;20091;-15
2022/09/17 02:21:39;;;;;;;1.35;0.75;;;15.50;88.30;;;;;;5105454;28;20386;-15
2022/09/17 02:24:19;;;;;;;1.88;0.50;;;15.40;88.20;;;;;;5116588;28;20035;-15
2022/09/17 02:26:59;;;;;;;0.55;0.55;;;15.40;88.10;;;;;;5116798;28;20466;-15
2022/09/17 02:29:31;;;;;;;1.85;0.52;;;15.40;88.20;;;;;;5116563;28;20024;-15
2022/09/17 02:31:58;;;;;;;0.75;0.60;;;15.40;88.60;;;;;;5116533;28;20483;-15
2022/09/17 02:34:26;;;;;;;0.73;0.70;;;15.30;88.60;;;;;;5116617;28;20031;-15
2022/09/17 02:36:54;;;;;;;2.03;0.50;;;15.30;88.60;;;;;;5116483;28;20050;-15
2022/09/17 02:39:20;;;;;;;0.70;0.50;;;15.30;88.40;;;;;;5097982;28;20475;-16
2022/09/17 02:42:04;;;;;;;0.75;0.52;;;15.30;88.40;;;;;;5116501;28;20023;-15
2022/09/17 02:45:15;;;;;;;0.60;0.30;;;15.30;88.00;;;;;;5115420;28;20032;-15
2022/09/17 02:48:11;;;;;;;1.65;0.73;;;15.30;87.60;;;;;;5084730;28;20036;-17
2022/09/17 02:50:40;;;;;;;0.40;0.40;;;15.20;87.90;;;;;;5116094;28;20491;-15
2022/09/17 02:53:33;;;;;;;0.50;0.40;;;15.20;87.90;;;;;;5115756;28;20501;-15
2022/09/17 02:56:12;;;;;;;0.85;0.35;;;15.20;87.50;;;;;;5116415;28;20114;-14
2022/09/17 02:58:53;;;;;;;0.68;0.40;;;15.20;87.90;;;;;;5116353;28;20031;-14
2022/09/17 03:01:43;;;;;;;1.02;0.60;;;15.10;87.80;;;;;;5116220;28;20100;-14
2022/09/17 03:04:14;;;;;;;0.77;0.65;;;15.10;87.70;;;;;;5116146;28;20031;-15
2022/09/17 03:06:45;;;;;;;1.00;0.60;;;15.10;87.80;;;;;;5116040;28;20028;-15
2022/09/17 03:09:11;;;;;;;0.32;0.32;;;15.10;87.60;;;;;;5115838;28;20024;-14
2022/09/17 03:11:37;;;;;;;0.45;0.45;;;15.10;87.90;;;;;;5116066;28;20050;-15
2022/09/17 03:14:03;;;;;;;0.75;0.55;;;15.10;87.80;;;;;;5115853;28;20059;-15
2022/09/17 03:16:29;;;;;;;1.50;0.40;;;15.00;87.60;;;;;;5116004;28;20035;-15
2022/09/17 03:18:55;;;;;;;0.50;0.50;;;15.00;87.90;;;;;;5115452;28;20065;-15
2022/09/17 03:21:21;;;;;;;0.40;0.32;;;14.90;87.50;;;;;;5115458;28;20034;-14
2022/09/17 03:23:46;;;;;;;0.50;0.50;;;14.90;87.30;;;;;;5115689;28;20020;-14
2022/09/17 03:26:13;;;;;;;0.77;0.40;;;14.90;87.50;;;;;;5115751;28;20023;-15
2022/09/17 03:28:38;;;;;;;0.50;0.50;;;14.90;87.40;;;;;;5115389;28;20031;-15
2022/09/17 03:31:04;;;;;;;1.88;0.80;;;14.90;87.30;;;;;;5115077;28;20065;-16
2022/09/17 03:33:32;;;;;;;1.98;0.50;;;14.90;87.00;;;;;;5115548;28;20020;-17
2022/09/17 03:35:58;;;;;;;2.10;0.60;;;14.90;87.20;;;;;;5115559;28;20038;-15
2022/09/17 03:38:24;;;;;;;0.95;0.60;;;14.90;87.30;;;;;;5115279;28;20027;-15
2022/09/17 03:41:01;;;;;;;2.30;0.85;;;14.90;87.00;;;;;;5115214;28;20032;-15
2022/09/17 03:43:28;;;;;;;1.45;0.68;;;14.80;87.20;;;;;;5115169;28;20111;-14
2022/09/17 03:45:54;;;;;;;0.93;0.50;;;14.90;87.30;;;;;;5115351;28;20102;-15
2022/09/17 03:48:21;;;;;;;0.60;0.47;;;14.80;87.10;;;;;;5115284;28;20028;-16
2022/09/17 03:50:48;;;;;;;1.85;0.50;;;14.80;87.10;;;;;;5115037;28;20043;-15
2022/09/17 03:53:15;;;;;;;0.40;0.40;;;14.80;87.10;;;;;;5115082;28;20102;-15
2022/09/17 03:55:41;;;;;;;1.30;0.30;;;14.70;86.30;;;;;;5115149;28;20031;-15
2022/09/17 03:58:06;;;;;;;1.33;0.35;;;14.70;86.40;;;;;;5115093;28;20030;-15
2022/09/17 04:00:35;;;;;;;0.70;0.50;;;14.70;86.80;;;;;;5115012;28;20023;-16
2022/09/17 04:03:03;;;;;;;0.38;0.38;;;14.70;86.50;;;;;;5114795;28;20051;-15
2022/09/17 04:05:29;;;;;;;0.50;0.40;;;14.70;86.40;;;;;;5114664;28;20538;-15
2022/09/17 04:07:55;;;;;;;0.30;0.30;;;14.70;86.50;;;;;;5114421;28;20131;-16
2022/09/17 04:10:22;;;;;;;1.23;0.40;;;14.70;85.80;;;;;;5114874;28;20023;-15
2022/09/17 04:12:48;;;;;;;2.30;0.40;;;14.70;86.40;;;;;;5114593;28;20031;-15
2022/09/17 04:15:14;;;;;;;0.47;0.47;;;14.70;85.40;;;;;;5114412;28;20023;-15
2022/09/17 04:17:40;;;;;;;0.75;0.50;;;14.70;85.80;;;;;;5114638;28;20035;-15
2022/09/17 04:20:06;;;;;;;1.48;0.50;;;14.70;86.00;;;;;;5114211;28;20126;-15
2022/09/17 04:22:32;;;;;;;0.50;0.50;;;14.60;85.70;;;;;;5114644;28;20066;-15
2022/09/17 04:24:59;;;;;;;0.70;0.52;;;14.60;85.20;;;;;;5114295;28;20032;-15
2022/09/17 04:27:30;;;;;;;1.02;0.60;;;14.60;85.50;;;;;;5114185;28;20467;-15
2022/09/17 04:29:56;;;;;;;0.90;0.30;;;14.60;85.50;;;;;;5114214;28;20031;-16
2022/09/17 04:32:22;;;;;;;1.35;0.57;;;14.60;85.60;;;;;;5114409;28;20027;-16
2022/09/17 04:34:48;;;;;;;0.47;0.47;;;14.50;85.80;;;;;;5114289;28;20169;-16
2022/09/17 04:37:15;;;;;;;0.82;0.70;;;14.40;85.90;;;;;;5096332;28;20016;-15
2022/09/17 04:39:41;;;;;;;2.70;0.50;;;14.40;86.30;;;;;;5114259;28;20027;-14
2022/09/17 04:42:08;;;;;;;2.13;0.70;;;14.30;86.50;;;;;;5114206;28;20024;-15
2022/09/17 04:44:34;;;;;;;3.42;0.70;;;14.20;86.80;;;;;;5114158;28;20055;-15
2022/09/17 04:47:00;;;;;;;2.33;0.55;;;14.20;87.00;;;;;;5113771;28;20059;-15
2022/09/17 04:49:28;;;;;;;3.92;0.70;;;14.20;87.30;;;;;;5114105;28;20023;-15
2022/09/17 04:51:54;;;;;;;1.75;0.57;;;14.20;87.40;;;;;;5113851;28;20069;-15
2022/09/17 04:54:21;;;;;;;0.93;0.50;;;14.20;87.50;;;;;;5114079;28;20086;-14
2022/09/17 04:56:47;;;;;;;1.30;0.40;;;14.10;87.80;;;;;;5114090;28;20028;-16
2022/09/17 04:59:13;;;;;;;1.70;0.65;;;14.00;87.80;;;;;;5114501;28;20019;-15
2022/09/17 05:01:39;;;;;;;2.38;0.57;;;14.00;88.00;;;;;;5113933;28;20130;-16
2022/09/17 05:04:05;;;;;;;0.40;0.40;;;14.00;87.90;;;;;;5113668;28;20474;-15
2022/09/17 05:06:31;;;;;;;2.08;0.60;;;14.00;88.00;;;;;;5113407;28;20122;-16
2022/09/17 05:08:57;;;;;;;1.08;0.43;;;14.00;88.20;;;;;;5113214;28;20059;-16
2022/09/17 05:11:23;;;;;;;1.25;0.50;;;14.00;88.30;;;;;;5113581;28;20030;-14
2022/09/17 05:13:49;;;;;;;1.17;0.82;;;13.90;88.10;;;;;;5113931;28;20019;-15
2022/09/17 05:16:15;;;;;;;0.88;0.65;;;13.90;88.70;;;;;;5113532;28;20035;-15
2022/09/17 05:18:41;;;;;;;1.17;0.55;;;13.90;88.50;;;;;;5113867;28;20020;-15
2022/09/17 05:21:07;;;;;;;0.80;0.60;;;13.90;88.70;;;;;;5095102;28;20051;-14
2022/09/17 05:23:33;;;;;;;1.50;0.60;;;13.90;88.80;;;;;;5113424;28;20439;-15
2022/09/17 05:26:00;;;;;;;0.40;0.40;;;13.90;88.80;;;;;;5113523;28;20030;-15
2022/09/17 05:28:27;;;;;;;0.50;0.50;;;13.90;88.80;;;;;;5113707;28;20378;-15
2022/09/17 05:30:57;;;;;;;1.20;0.70;;;13.90;88.80;;;;;;5113348;28;20483;-15
2022/09/17 05:33:23;;;;;;;1.40;0.63;;;13.90;88.80;;;;;;5113397;28;20035;-15
2022/09/17 05:35:49;;;;;;;1.60;0.63;;;13.90;88.90;;;;;;5113353;28;20024;-15
2022/09/17 05:38:17;;;;;;;2.60;0.60;;;13.90;89.00;;;;;;5113258;28;20114;-15
2022/09/17 05:40:44;;;;;;;2.38;0.80;;;13.90;89.20;;;;;;5113233;28;20427;-15
2022/09/17 05:43:10;;;;;;;2.95;0.80;;;13.90;89.20;;;;;;5113101;28;20028;-15
2022/09/17 05:45:37;;;;;;;2.72;0.80;;;13.90;89.30;;;;;;5113514;28;20077;-15
2022/09/17 05:48:05;;;;;;;5.50;0.80;;;13.90;89.30;;;;;;5113215;28;20517;-15
2022/09/17 05:50:32;;;;;;;3.30;0.60;;;14.00;89.30;;;;;;5113468;28;20378;-15
2022/09/17 05:53:12;;;;;;;4.10;0.85;;;13.90;89.10;;;;;;5113173;28;20391;-15
2022/09/17 05:55:39;;;;;;;4.30;1.10;;;13.90;88.90;;;;;;5113678;28;20024;-15
2022/09/17 05:58:16;;;;;;;4.22;0.70;;;13.90;89.00;;;;;;5113160;28;20489;-16
2022/09/17 06:00:42;;;;;;;0.52;0.50;;;13.90;88.90;;;;;;5113296;28;20023;-16
2022/09/17 06:03:12;;;;;;;2.40;0.70;;;13.90;89.10;;;;;;5113025;28;20042;-16
2022/09/17 06:05:39;;;;;;;2.05;0.68;;;13.80;89.10;;;;;;5113395;28;20035;-13
2022/09/17 06:08:06;;;;;;;0.90;0.60;;;13.80;88.90;;;;;;5112703;28;20679;-14
2022/09/17 06:10:36;;;;;;;2.22;0.60;;;13.80;89.10;;;;;;5112986;28;20034;-13
2022/09/17 06:13:03;;;;;;;2.40;0.70;;;13.70;89.10;;;;;;5113130;28;20185;-13
2022/09/17 06:15:29;;;;;;;2.63;0.77;;;13.70;89.10;;;;;;5113346;28;20035;-15
2022/09/17 06:17:55;;;;;;;1.23;0.65;;;13.70;89.10;;;;;;5112963;28;20038;-15
2022/09/17 06:20:21;;;;;;;1.95;0.60;;;13.60;89.20;;;;;;5114772;28;20058;-13
2022/09/17 06:22:47;;;;;;;2.38;0.60;;;13.70;89.30;;;;;;5116816;28;20032;-12
2022/09/17 06:25:13;;;;;;;2.13;0.70;;;13.70;89.30;;;;;;5116580;28;20028;-12
2022/09/17 06:27:39;;;;;;;5.20;1.10;;;13.60;89.40;;;;;;5116549;28;20546;-12
2022/09/17 06:30:06;;;;;;;1.30;0.57;;;13.70;89.40;;;;;;5098743;28;20425;-13
2022/09/17 06:32:32;;;;;;;1.60;0.88;;;13.60;89.30;;;;;;5116664;28;20027;-14
2022/09/17 06:34:58;;;;;;;2.85;1.05;;;13.60;89.40;;;;;;5116583;28;20073;-14
2022/09/17 06:37:28;;;;;;;2.72;0.75;;;13.60;89.30;;;;;;5116425;28;20425;-16
2022/09/17 06:39:54;;;;;;;2.20;0.70;;;13.50;89.30;;;;;;5116250;28;20106;-16
2022/09/17 06:42:20;;;;;;;1.17;0.77;;;13.50;89.20;;;;;;5116508;28;20051;-15
2022/09/17 06:44:47;;;;;;;0.95;0.70;;;13.50;89.20;;;;;;5116277;28;20059;-16
2022/09/17 06:47:13;;;;;;;1.13;0.88;;;13.40;89.20;;;;;;5116765;28;20028;-15
2022/09/17 06:49:39;;;;;;;3.42;0.88;;;13.40;89.10;;;;;;5116162;28;20111;-15
2022/09/17 06:52:05;;;;;;;1.50;0.70;;;13.40;89.20;;;;;;5116079;28;20115;-16
2022/09/17 06:54:31;;;;;;;1.15;0.75;;;13.40;89.20;;;;;;5115989;28;20027;-17
2022/09/17 06:56:57;;;;;;;1.42;0.70;;;13.40;89.10;;;;;;5115908;28;20035;-15
2022/09/17 06:59:24;;;;;;;1.25;0.73;;;13.30;89.10;;;;;;5115976;28;20024;-17
2022/09/17 07:01:50;;;;;;;1.70;0.80;;;13.30;89.00;;;;;;5115861;28;20070;-16
2022/09/17 07:04:18;;;;;;;1.73;0.90;;;13.20;89.20;;;;;;5116167;28;20055;-16
2022/09/17 07:06:44;;;;;;;3.15;1.10;;;13.20;89.30;;;;;;5115752;28;20038;-15
2022/09/17 07:09:11;;;;;;;3.28;1.20;;;13.30;89.20;;;;;;5097376;28;20114;-16
2022/09/17 07:11:38;;;;;;;1.50;1.10;;;13.30;89.40;;;;;;5097545;28;20440;-17
2022/09/17 07:14:05;;;;;;;1.23;0.70;;;13.30;89.60;;;;;;5115623;28;20027;-17
2022/09/17 07:16:33;;;;;;;1.85;1.02;;;13.20;89.70;;;;;;5115631;28;20034;-15
2022/09/17 07:19:03;;;;;;;3.65;1.20;;;13.20;89.80;;;;;;5115811;28;20055;-15
2022/09/17 07:21:28;;;;;;;2.55;0.90;;;13.20;89.90;;;;;;5115722;28;20501;-15
2022/09/17 07:23:54;;;;;;;4.38;1.50;;;13.30;90.10;;;;;;5115707;28;20031;-13
2022/09/17 07:26:20;;;;;;;2.42;1.40;;;13.30;90.20;;;;;;5115770;28;20490;-14
2022/09/17 07:28:46;;;;;;;3.60;1.42;;;13.30;90.20;;;;;;5115690;28;20432;-13
2022/09/17 07:31:13;;;;;;;3.03;1.30;;;13.30;90.20;;;;;;5115381;28;20034;-15
2022/09/17 07:33:39;;;;;;;3.05;1.58;;;13.40;90.40;;;;;;5115607;28;20038;-15
2022/09/17 07:36:09;;;;;;;4.50;1.50;;;13.40;90.40;;;;;;5115437;28;20019;-15
2022/09/17 07:38:35;;;;;;;1.70;1.33;;;13.40;90.40;;;;;;5115330;28;20027;-15
2022/09/17 07:41:03;;;;;;;2.78;1.25;;;13.40;90.40;;;;;;5114908;28;20032;-16
2022/09/17 07:43:31;;;;;;;1.67;1.50;;;13.40;90.40;;;;;;5115421;28;20072;-13
2022/09/17 07:45:59;;;;;;;4.10;1.70;;;13.40;90.20;;;;;;5115358;28;20031;-14
2022/09/17 07:48:25;;;;;;;3.50;1.38;;;13.40;90.20;;;;;;5115023;28;20467;-12
2022/09/17 07:50:51;;;;;;;3.38;1.58;;;13.40;90.00;;;;;;5096570;28;20467;-15
2022/09/17 07:53:17;;;;;;;3.33;1.63;;;13.40;90.10;;;;;;5115078;28;20031;-15
2022/09/17 07:55:58;;;;;;;2.38;1.48;;;13.40;90.20;;;;;;5115102;28;20028;-16
2022/09/17 07:58:31;;;;;;;2.70;1.40;;;13.40;90.20;;;;;;5114827;28;20035;-17
2022/09/17 08:01:02;;;;;;;3.15;1.48;;;13.40;90.20;;;;;;5114583;28;20483;-15
2022/09/17 08:03:28;;;;;;;3.92;1.50;;;13.50;90.20;;;;;;5115022;28;20112;-15
2022/09/17 08:06:02;;;;;;;3.17;1.55;;;13.60;90.20;;;;;;5114974;28;20035;-17
2022/09/17 08:08:33;;;;;;;1.98;1.40;;;13.50;89.90;;;;;;5114416;28;20491;-15
2022/09/17 08:11:02;;;;;;;2.78;1.40;;;13.50;90.00;;;;;;5096481;28;20077;-16
2022/09/17 08:13:29;;;;;;;2.92;1.88;;;13.50;89.90;;;;;;5114521;28;20032;-16
2022/09/17 08:16:04;;;;;;;1.55;1.27;;;13.50;89.90;;;;;;5114457;28;20027;-16
2022/09/17 08:18:31;;;;;;;3.72;1.30;;;13.60;89.70;;;;;;5114460;28;20063;-16
2022/09/17 08:21:02;;;;;;;1.42;1.30;;;13.50;89.20;;;;;;5114347;28;20027;-16
2022/09/17 08:23:29;;;;;;;2.65;1.15;;;13.50;89.30;;;;;;5114602;28;20024;-15
2022/09/17 08:25:57;;;;;;;2.33;1.60;;;13.60;89.30;;;;;;5114558;28;20486;-16
2022/09/17 08:28:24;;;;;;;2.38;1.20;;;13.60;89.10;;;;;;5114164;28;20112;-17
2022/09/17 08:30:58;;;;;;;2.88;1.65;;;13.50;89.10;;;;;;5114307;28;20024;-16
2022/09/17 08:33:24;;;;;;;1.95;1.27;;;13.60;89.10;;;;;;5114604;28;20052;-16
2022/09/17 08:35:53;;;;;;;2.53;1.40;;;13.50;89.00;;;;;;5114137;28;20088;-15
2022/09/17 08:38:20;;;;;;;2.00;1.50;;;13.50;89.00;;;;;;5114315;28;20072;-15
2022/09/17 08:40:55;;;;;;;3.42;1.60;;;13.50;89.00;;;;;;5113981;28;20023;-16
2022/09/17 08:43:23;;;;;;;4.32;1.40;;;13.60;89.10;;;;;;5113298;28;20038;-15
2022/09/17 08:45:55;;;;;;;4.10;1.80;;;13.60;89.30;;;;;;5114302;28;20027;-16
2022/09/17 08:48:24;;;;;;;3.28;1.70;;;13.50;89.10;;;;;;5113900;28;20023;-16
2022/09/17 08:50:50;;;;;;;2.63;1.77;;;13.60;89.10;;;;;;5113655;28;20030;-16
2022/09/17 08:53:37;;;;;;;5.20;2.17;;;13.60;89.10;;;;;;5113749;28;20024;-15
2022/09/17 08:56:14;;;;;;;1.50;1.38;;;13.60;88.20;;;;;;5114105;28;20111;-12
2022/09/17 08:58:58;;;;;;;1.40;1.30;;;13.60;87.10;;;;;;5113863;28;20063;-16
2022/09/17 09:02:02;;;;;;;4.65;1.77;;;13.60;87.10;;;;;;5114354;28;20062;-14
2022/09/17 09:04:55;;;;;;;1.10;1.00;;;13.60;87.40;;;;;;5113721;28;20039;-16
2022/09/17 09:07:30;;;;;;;1.98;1.38;;;13.80;87.50;;;;;;5113499;28;20410;-14
2022/09/17 09:10:31;;;;;;;4.78;1.52;;;13.70;87.00;;;;;;5113912;28;20055;-14
2022/09/17 09:13:00;;;;;;;1.90;1.38;;;13.80;87.10;;;;;;5030981;28;20077;-15
2022/09/17 09:15:51;;;;;;;2.08;1.30;;;13.70;86.50;;;;;;5031322;28;20030;-15
2022/09/17 09:18:22;;;;;;;3.13;1.67;;;13.70;86.20;;;;;;5031144;28;20060;-14
2022/09/17 09:20:55;;;;;;;3.03;1.52;;;13.60;86.50;;;;;;5030835;28;20029;-16
2022/09/17 09:23:46;;;;;;;3.35;1.40;;;13.60;86.50;;;;;;5031035;28;20535;-14
2022/09/17 09:26:17;;;;;;;2.55;1.33;;;13.50;86.50;;;;;;5031037;28;20026;-15
2022/09/17 09:29:01;;;;;;;2.05;1.50;;;13.40;86.50;;;;;;5030970;28;20041;-16
2022/09/17 09:31:57;;;;;;;1.92;1.42;;;13.40;86.30;;;;;;5031532;28;20401;-16
2022/09/17 09:34:26;;;;;;;1.52;1.33;;;13.30;86.70;;;;;;5030887;28;20513;-15
2022/09/17 09:37:01;;;;;;;1.58;1.48;;;13.30;86.90;;;;;;5030720;28;20079;-16
2022/09/17 09:39:34;;;;;;;2.33;1.55;;;13.30;87.10;;;;;;5030732;28;20028;-15
2022/09/17 09:42:18;;;;;;;1.40;1.30;;;13.30;86.90;;;;;;5030914;28;20045;-15
2022/09/17 09:44:45;;;;;;;3.80;1.83;;;13.30;86.90;;;;;;5030791;28;20264;-15
2022/09/17 09:47:18;;;;;;;2.47;1.35;;;13.30;85.50;;;;;;5030573;28;20072;-15
2022/09/17 09:50:02;;;;;;;3.28;1.33;;;13.20;85.90;;;;;;5113350;28;20024;-16
2022/09/17 09:52:40;;;;;;;1.20;1.10;;;13.20;85.50;;;;;;5113455;28;20030;-15
2022/09/17 09:55:43;;;;;;;1.30;1.20;;;13.30;85.60;;;;;;5115874;28;20460;-15
2022/09/17 09:58:31;;;;;;;1.30;1.17;;;13.30;85.30;;;;;;5117176;28;20502;-15
2022/09/17 10:00:57;;;;;;;1.48;1.30;;;13.30;85.40;;;;;;5116973;28;20145;-14
2022/09/17 10:03:31;;;;;;;1.30;1.20;;;13.40;85.00;;;;;;5117387;28;20055;-15
2022/09/17 10:06:01;;;;;;;;;;;13.30;85.60;;;;;;5117819;28;20102;-15
2022/09/17 10:08:34;;;;;;;1.33;1.20;;;13.40;85.10;;;;;;5116868;28;19915;-15
2022/09/17 10:11:01;;;;;;;2.25;1.10;;;13.40;85.40;;;;;;5116789;28;20031;-15
2022/09/17 10:13:31;;;;;;;1.98;1.10;;;13.40;83.80;;;;;;5116914;28;20122;-15
2022/09/17 10:16:23;;;;;;;1.27;1.10;;;13.50;84.30;;;;;;5117206;28;20016;-15
2022/09/17 10:19:02;;;;;;;1.00;0.90;;;13.60;84.90;;;;;;5117022;28;20096;-15
2022/09/17 10:21:45;;;;;;;1.85;1.15;;;13.70;84.10;;;;;;5117319;28;20035;-14
2022/09/17 10:24:23;;;;;;;2.53;1.20;;;13.90;83.80;;;;;;5116982;28;20035;-15
2022/09/17 10:26:49;;;;;;;1.02;0.80;;;14.00;82.90;;;;;;5116307;28;20547;-15
2022/09/17 10:29:19;;;;;;;0.70;0.70;;;14.10;81.90;;;;;;5116911;28;20019;-14
2022/09/17 10:31:50;;;;;;;1.05;0.80;;;14.30;82.50;;;;;;5116602;28;20062;-15
2022/09/17 10:34:25;;;;;;;0.60;0.60;;;14.30;81.50;;;;;;5116612;28;20038;-15
2022/09/17 10:36:53;;;;;;;1.30;0.90;;;14.40;82.30;;;;;;5116268;28;20028;-15
2022/09/17 10:39:28;;;;;;;1.27;0.73;;;14.60;81.50;;;;;;5116310;28;20080;-15
2022/09/17 10:41:59;;;;;;;0.80;0.80;;;14.70;80.90;;;;;;5116588;28;20080;-14
2022/09/17 10:44:31;;;;;;;1.13;0.70;;;14.80;81.30;;;;;;5116642;28;20027;-15
2022/09/17 10:47:13;;;;;;;0.77;0.60;;;14.90;81.10;;;;;;5116240;28;20371;-14
2022/09/17 10:50:14;;;;;;;0.75;0.70;;;15.10;80.70;;;;;;5116575;28;20055;-15
2022/09/17 10:52:47;;;;;;;0.50;0.50;;;15.20;80.40;;;;;;5102102;28;20034;-15
2022/09/17 10:55:25;;;;;;;0.73;0.60;;;15.30;79.20;;;;;;5116410;28;20075;-15
2022/09/17 10:58:06;;;;;;;0.40;0.40;;;15.40;78.40;;;;;;5116083;28;20063;-14
2022/09/17 11:01:10;;;;;;;0.60;0.60;;;15.40;76.80;;;;;;5116031;28;20378;-15
2022/09/17 11:04:00;;;;;;;1.05;0.95;;;15.50;78.20;;;;;;5084750;28;20035;-14
2022/09/17 11:06:36;;;;;;;0.40;0.40;;;15.60;78.40;;;;;;5115453;28;20145;-14
2022/09/17 11:09:14;;;;;;;0.50;0.50;;;15.80;78.20;;;;;;5115737;28;20040;-14
2022/09/17 11:12:02;;;;;;;1.20;0.50;;;15.90;77.40;;;;;;5115819;28;20559;-15
2022/09/17 11:14:37;;;;;;;0.63;0.63;;;16.10;76.70;;;;;;5115996;28;20107;-14
2022/09/17 11:17:37;;;;;;;0.47;0.47;;;16.30;76.60;;;;;;5115418;28;20028;-15
2022/09/17 11:20:33;;;;;;;1.90;0.50;;;16.40;75.70;;;;;;5115683;28;20023;-14
2022/09/17 11:23:09;;;;;;;0.68;0.60;;;16.70;74.80;;;;;;5115391;28;20122;-15
2022/09/17 11:26:07;;;;;;;1.70;0.60;;;16.80;73.60;;;;;;5097152;28;20106;-15
2022/09/17 11:28:48;;;;;;;0.40;0.40;;;17.00;71.30;;;;;;5032929;28;20057;-15
2022/09/17 11:31:32;;;;;;;0.68;0.43;;;17.00;71.10;;;;;;5032872;28;20041;-14
2022/09/17 11:34:15;;;;;;;;;;;17.10;71.60;;;;;;5033139;28;20032;-14
2022/09/17 11:36:54;;;;;;;0.88;0.55;;;17.30;68.10;;;;;;5032902;28;20357;-14
2022/09/17 11:39:53;;;;;;;0.30;0.30;;;17.50;70.70;;;;;;5032656;28;20026;-15
2022/09/17 11:42:30;;;;;;;0.65;0.55;;;17.90;70.10;;;;;;5007105;28;20153;-15
2022/09/17 11:45:09;;;;;;;0.50;0.50;;;18.00;68.90;;;;;;5032562;28;20067;-14
2022/09/17 11:47:41;;;;;;;0.68;0.60;;;18.10;67.40;;;;;;5032571;28;20477;-14
2022/09/17 11:50:23;;;;;;;0.40;0.40;;;18.20;67.20;;;;;;5032527;28;20029;-14
2022/09/17 11:53:07;;;;;;;0.40;0.40;;;18.30;67.70;;;;;;5032402;28;20393;-15
2022/09/17 11:55:57;;;;;;;0.55;0.50;;;18.40;67.40;;;;;;5032294;28;20030;-14
2022/09/17 11:58:49;;;;;;;0.98;0.80;;;18.80;66.80;;;;;;5031970;28;20037;-14
2022/09/17 12:01:50;;;;;;;0.68;0.60;;;19.20;65.60;;;;;;5032196;28;20068;-15
2022/09/17 12:04:31;;;;;;;0.45;0.45;;;19.80;63.30;;;;;;4998253;28;20556;-14
2022/09/17 12:07:09;;;;;;;1.05;0.60;;;20.30;60.00;;;;;;5031679;28;20096;-15
2022/09/17 12:09:38;;;;;;;0.80;0.70;;;20.50;58.70;;;;;;5032145;28;20064;-14
2022/09/17 12:12:18;;;;;;;1.13;0.60;;;20.70;59.20;;;;;;5027690;28;20160;-15
2022/09/17 12:14:50;;;;;;;0.55;0.52;;;21.10;59.90;;;;;;5012523;28;20057;-15
2022/09/17 12:17:35;;;;;;;1.52;0.90;;;21.70;58.70;;;;;;5011588;28;20058;-15
2022/09/17 12:20:09;;;;;;;1.58;0.77;;;22.40;55.80;;;;;;5012208;28;20022;-15
2022/09/17 12:22:41;;;;;;;0.70;0.70;;;23.00;54.80;;;;;;5012099;28;20049;-15
2022/09/17 12:25:12;;;;;;;1.05;0.80;;;23.50;53.20;;;;;;5011891;28;20053;-14
2022/09/17 12:27:43;;;;;;;0.60;0.60;;;23.50;51.80;;;;;;5012065;28;20037;-14
2022/09/17 12:30:20;;;;;;;1.00;0.88;;;23.40;53.10;;;;;;5012037;28;20026;-14
2022/09/17 12:33:01;;;;;;;0.75;0.75;;;23.30;52.80;;;;;;5012077;28;20185;-15
2022/09/17 12:35:53;;;;;;;0.60;0.60;;;22.90;51.10;;;;;;5012100;28;20030;-14
2022/09/17 12:38:43;;;;;;;0.70;0.70;;;22.70;52.40;;;;;;5011947;28;20116;-14
2022/09/17 12:41:21;;;;;;;0.80;0.80;;;22.50;53.20;;;;;;5044567;28;20175;-15
2022/09/17 12:43:59;;;;;;;0.60;0.60;;;22.40;53.00;;;;;;5088861;28;20089;-15
2022/09/17 12:46:49;;;;;;;0.43;0.40;;;22.60;53.10;;;;;;5073756;28;20020;-14
2022/09/17 12:49:29;;;;;;;1.35;0.60;;;23.30;53.20;;;;;;5073408;28;20434;-15
2022/09/17 12:52:03;;;;;;;0.50;0.50;;;24.00;52.10;;;;;;5073330;28;20079;-15
2022/09/17 12:54:51;;;;;;;0.60;0.57;;;24.70;50.50;;;;;;5073521;28;20032;-15
2022/09/17 12:57:41;;;;;;;0.35;0.35;;;25.10;48.60;;;;;;5073668;28;20024;-15
2022/09/17 13:00:12;;;;;;;2.17;0.40;;;25.60;46.80;;;;;;5073478;28;20024;-14
2022/09/17 13:02:46;;;;;;;0.60;0.50;;;25.80;47.00;;;;;;5073120;28;20116;-15
2022/09/17 13:05:33;;;;;;;0.98;0.50;;;25.90;45.30;;;;;;5074113;28;20553;-15
2022/09/17 13:08:02;;;;;;;1.75;0.50;;;25.90;45.90;;;;;;5085814;28;20052;-15
2022/09/17 13:10:34;;;;;;;0.50;0.30;;;25.60;43.70;;;;;;5093188;28;20035;-14
2022/09/17 13:13:18;;;;;;;0.50;0.50;;;25.30;45.10;;;;;;5093125;28;20035;-15
2022/09/17 13:15:49;;;;;;;0.52;0.40;;;25.20;44.50;;;;;;5093696;28;20086;-15
2022/09/17 13:18:37;;;;;;;0.50;0.50;;;25.40;45.10;;;;;;5093556;28;20024;-15
2022/09/17 13:21:15;;;;;;;0.30;0.30;;;25.30;45.10;;;;;;5092959;28;20032;-14